createdAt,value
2022-10-22T00:02:55.879Z,7.60
2022-10-22T00:05:59.368Z,7.71
2022-10-22T00:09:02.114Z,7.70
2022-10-22T00:12:05.444Z,7.58
2022-10-22T00:15:08.382Z,7.63
2022-10-22T00:18:11.330Z,7.39
2022-10-22T00:21:13.951Z,7.24
2022-10-22T00:24:16.819Z,7.44
2022-10-22T00:27:19.594Z,7.44
2022-10-22T00:30:23.115Z,7.40
2022-10-22T00:33:26.264Z,7.31
2022-10-22T00:36:29.121Z,7.29
2022-10-22T00:39:32.157Z,7.30
2022-10-22T00:42:34.979Z,7.28
2022-10-22T00:45:37.524Z,7.18
2022-10-22T00:48:40.615Z,7.20
2022-10-22T00:51:43.130Z,7.20
2022-10-22T00:54:45.981Z,7.19
2022-10-22T00:57:49.081Z,7.09
2022-10-22T01:00:52.041Z,7.02
2022-10-22T01:03:55.144Z,7.06
2022-10-22T01:06:58.010Z,7.08
2022-10-22T01:10:09.961Z,6.96
2022-10-22T01:13:18.701Z,7.05
2022-10-22T01:16:45.289Z,7.04
2022-10-22T01:20:00.259Z,7.20
2022-10-22T01:23:02.705Z,6.94
2022-10-22T01:26:18.179Z,6.84
2022-10-22T01:29:29.489Z,6.96
2022-10-22T01:32:38.282Z,7.07
2022-10-22T01:35:44.547Z,7.05
2022-10-22T01:38:49.991Z,7.18
2022-10-22T01:41:55.865Z,7.12
2022-10-22T01:44:58.740Z,6.74
2022-10-22T01:48:21.503Z,6.90
2022-10-22T01:51:38.988Z,6.97
2022-10-22T01:55:10.762Z,6.88
2022-10-22T01:58:22.668Z,6.87
2022-10-22T02:01:48.054Z,7.07
2022-10-22T02:04:55.276Z,7.12
2022-10-22T02:08:11.980Z,7.18
2022-10-22T02:11:15.966Z,7.35
2022-10-22T02:14:19.608Z,7.25
2022-10-22T02:17:24.014Z,7.28
2022-10-22T02:20:30.143Z,7.33
2022-10-22T02:23:33.199Z,7.35
2022-10-22T02:26:47.294Z,7.27
2022-10-22T02:29:54.499Z,7.19
2022-10-22T02:33:08.665Z,7.22
2022-10-22T02:36:12.613Z,7.23
2022-10-22T02:42:28.405Z,7.18
2022-10-22T02:45:31.787Z,7.03
2022-10-22T02:48:34.675Z,7.03
2022-10-22T02:51:37.200Z,7.00
2022-10-22T02:54:40.074Z,6.89
2022-10-22T02:57:42.873Z,6.75
2022-10-22T03:00:46.138Z,6.82
2022-10-22T03:03:48.786Z,6.84
2022-10-22T03:06:51.618Z,6.79
2022-10-22T03:09:54.377Z,6.82
2022-10-22T03:12:57.375Z,6.79
2022-10-22T03:15:59.966Z,6.75
2022-10-22T03:19:02.846Z,6.82
2022-10-22T03:22:14.738Z,6.74
2022-10-22T03:25:21.163Z,6.67
2022-10-22T03:28:23.997Z,6.61
2022-10-22T03:31:26.954Z,6.57
2022-10-22T03:34:29.693Z,6.50
2022-10-22T03:37:34.714Z,6.48
2022-10-22T03:40:37.590Z,6.54
2022-10-22T03:43:41.185Z,6.47
2022-10-22T03:46:44.095Z,6.26
2022-10-22T03:49:46.967Z,6.16
2022-10-22T03:52:49.662Z,6.16
2022-10-22T03:55:52.683Z,6.18
2022-10-22T03:59:00.893Z,5.99
2022-10-22T04:02:04.605Z,6.15
2022-10-22T04:05:08.110Z,6.00
2022-10-22T04:08:15.734Z,5.91
2022-10-22T04:11:18.613Z,5.86
2022-10-22T04:14:21.349Z,6.05
2022-10-22T04:17:24.435Z,5.92
2022-10-22T04:20:27.179Z,6.29
2022-10-22T04:23:30.262Z,5.95
2022-10-22T04:26:32.999Z,5.87
2022-10-22T04:29:36.207Z,6.07
2022-10-22T04:32:38.861Z,6.01
2022-10-22T04:35:41.774Z,6.28
2022-10-22T04:38:46.691Z,5.87
2022-10-22T04:41:49.770Z,5.90
2022-10-22T04:44:52.490Z,6.11
2022-10-22T04:47:55.607Z,5.97
2022-10-22T04:50:59.034Z,5.78
2022-10-22T04:54:01.999Z,6.29
2022-10-22T04:57:04.679Z,5.90
2022-10-22T05:00:08.552Z,5.95
2022-10-22T05:03:11.424Z,5.91
2022-10-22T05:06:15.080Z,5.74
2022-10-22T05:09:20.545Z,6.07
2022-10-22T05:12:26.791Z,5.87
2022-10-22T05:15:29.585Z,5.92
2022-10-22T05:18:36.447Z,5.67
2022-10-22T05:21:39.240Z,5.80
2022-10-22T05:25:07.390Z,6.23
2022-10-22T05:28:10.306Z,5.85
2022-10-22T05:31:34.313Z,5.87
2022-10-22T05:34:38.813Z,5.63
2022-10-22T05:37:42.839Z,5.73
2022-10-22T05:41:05.312Z,5.87
2022-10-22T05:44:12.237Z,5.68
2022-10-22T05:47:18.090Z,5.83
2022-10-22T05:50:39.616Z,6.15
2022-10-22T05:53:43.614Z,6.04
2022-10-22T05:56:46.999Z,6.27
2022-10-22T06:00:11.617Z,6.23
2022-10-22T06:03:18.774Z,6.52
2022-10-22T06:06:35.903Z,6.44
2022-10-22T06:09:39.586Z,6.60
2022-10-22T06:12:42.751Z,6.50
2022-10-22T06:15:45.955Z,6.65
2022-10-22T06:18:48.790Z,6.71
2022-10-22T06:22:12.246Z,6.82
2022-10-22T06:25:15.275Z,6.83
2022-10-22T06:28:25.109Z,6.91
2022-10-22T06:31:28.948Z,7.02
2022-10-22T06:34:34.584Z,7.38
2022-10-22T06:37:37.516Z,7.68
2022-10-22T06:40:43.658Z,7.21
2022-10-22T06:43:47.141Z,7.51
2022-10-22T06:46:53.445Z,8.20
2022-10-22T06:49:56.337Z,8.16
2022-10-22T06:52:59.390Z,8.19
2022-10-22T06:56:27.809Z,8.45
2022-10-22T06:59:30.950Z,9.07
2022-10-22T07:02:34.540Z,9.17
2022-10-22T07:05:42.334Z,9.22
2022-10-22T07:08:45.071Z,9.34
2022-10-22T07:11:51.560Z,9.33
2022-10-22T07:14:54.329Z,9.56
2022-10-22T07:17:57.441Z,9.71
2022-10-22T07:21:00.654Z,9.63
2022-10-22T07:24:03.983Z,9.80
2022-10-22T07:27:09.518Z,9.90
2022-10-22T07:30:14.942Z,9.93
2022-10-22T07:33:17.737Z,10.09
2022-10-22T07:36:20.849Z,10.14
2022-10-22T07:39:25.836Z,10.38
2022-10-22T07:45:33.702Z,10.66
2022-10-22T07:48:37.807Z,10.85
2022-10-22T07:51:40.629Z,11.12
2022-10-22T07:54:46.033Z,11.28
2022-10-22T07:57:48.544Z,11.32
2022-10-22T08:00:54.910Z,11.21
2022-10-22T08:03:57.785Z,11.37
2022-10-22T08:07:00.893Z,11.69
2022-10-22T08:10:04.050Z,11.92
2022-10-22T08:13:07.668Z,12.46
2022-10-22T08:16:10.551Z,12.67
2022-10-22T08:19:21.249Z,13.02
2022-10-22T08:22:24.210Z,13.23
2022-10-22T08:25:27.317Z,13.58
2022-10-22T08:28:32.846Z,13.88
2022-10-22T08:31:35.556Z,14.20
2022-10-22T08:34:38.546Z,14.29
2022-10-22T08:37:41.479Z,14.64
2022-10-22T08:44:16.623Z,14.30
2022-10-22T08:47:39.821Z,14.10
2022-10-22T08:50:48.845Z,13.96
2022-10-22T08:54:15.514Z,14.10
2022-10-22T08:57:51.405Z,14.67
2022-10-22T09:01:14.850Z,14.80
2022-10-22T09:04:41.467Z,14.20
2022-10-22T09:07:50.107Z,14.90
2022-10-22T09:11:02.194Z,15.01
2022-10-22T09:14:06.495Z,15.28
2022-10-22T09:17:41.506Z,14.54
2022-10-22T09:20:58.967Z,14.66
2022-10-22T09:24:14.121Z,14.81
2022-10-22T09:27:20.141Z,15.01
2022-10-22T09:30:25.172Z,15.82
2022-10-22T09:33:30.850Z,15.92
2022-10-22T09:36:35.213Z,16.12
2022-10-22T09:39:40.459Z,15.70
2022-10-22T09:42:44.887Z,16.28
2022-10-22T09:45:49.138Z,16.14
2022-10-22T09:49:10.290Z,16.32
2022-10-22T09:52:35.449Z,15.98
2022-10-22T09:55:39.518Z,15.42
2022-10-22T09:58:45.235Z,16.05
2022-10-22T10:05:32.241Z,15.67
2022-10-22T10:08:35.246Z,16.00
2022-10-22T10:11:48.943Z,15.64
2022-10-22T10:15:23.346Z,16.24
2022-10-22T10:18:33.687Z,16.06
2022-10-22T10:21:48.774Z,16.12
2022-10-22T10:25:17.535Z,16.58
2022-10-22T10:28:39.390Z,16.70
2022-10-22T10:32:01.033Z,17.39
2022-10-22T10:35:15.493Z,17.01
2022-10-22T10:38:48.473Z,16.83
2022-10-22T10:42:08.646Z,17.57
2022-10-22T10:45:31.723Z,17.39
2022-10-22T10:48:46.947Z,17.25
2022-10-22T10:52:04.666Z,17.24
2022-10-22T10:55:18.503Z,17.10
2022-10-22T10:58:33.766Z,17.54
2022-10-22T11:01:55.531Z,17.29
2022-10-22T11:05:22.345Z,17.34
2022-10-22T11:08:30.934Z,17.37
2022-10-22T11:11:40.282Z,17.50
2022-10-22T11:15:32.318Z,17.37
2022-10-22T11:18:41.695Z,17.36
2022-10-22T11:21:51.700Z,17.41
2022-10-22T11:25:15.757Z,17.50
2022-10-22T11:28:25.843Z,17.66
2022-10-22T11:31:31.079Z,17.50
2022-10-22T11:34:41.321Z,17.91
2022-10-22T11:37:46.438Z,17.99
2022-10-22T11:41:00.916Z,17.52
2022-10-22T11:44:12.136Z,17.43
2022-10-22T11:47:20.911Z,17.81
2022-10-22T11:51:00.179Z,17.51
2022-10-22T11:54:31.411Z,17.17
2022-10-22T11:57:39.336Z,17.22
2022-10-22T12:00:49.199Z,16.99
2022-10-22T12:04:13.663Z,16.85
2022-10-22T12:07:31.553Z,16.83
2022-10-22T12:10:51.159Z,16.61
2022-10-22T12:14:26.774Z,16.65
2022-10-22T12:17:31.292Z,16.35
2022-10-22T12:20:34.602Z,16.44
2022-10-22T12:23:37.795Z,16.46
2022-10-22T12:26:40.543Z,16.42
2022-10-22T12:29:43.664Z,16.40
2022-10-22T12:32:47.925Z,16.16
2022-10-22T12:35:58.789Z,16.12
2022-10-22T12:39:18.244Z,16.01
2022-10-22T12:42:25.211Z,16.04
2022-10-22T12:45:34.456Z,15.96
2022-10-22T12:48:42.127Z,15.98
2022-10-22T13:14:38.722Z,16.00
2022-10-22T13:17:42.795Z,15.64
2022-10-22T13:21:03.482Z,15.81
2022-10-22T13:24:27.052Z,15.82
2022-10-22T13:27:31.795Z,15.81
2022-10-22T13:30:37.065Z,15.88
2022-10-22T13:33:43.575Z,15.99
2022-10-22T13:36:46.791Z,15.84
2022-10-22T13:39:49.804Z,15.88
2022-10-22T13:42:52.900Z,15.88
2022-10-22T13:45:59.081Z,15.60
2022-10-22T13:49:25.654Z,15.81
2022-10-22T13:52:53.397Z,15.82
2022-10-22T13:56:21.561Z,15.67
2022-10-22T13:59:24.231Z,15.75
2022-10-22T14:02:28.209Z,15.58
2022-10-22T14:05:32.662Z,15.40
2022-10-22T14:08:35.372Z,15.41
2022-10-22T14:11:38.942Z,15.49
2022-10-22T14:14:41.696Z,15.25
2022-10-22T14:17:49.591Z,14.99
2022-10-22T14:20:55.361Z,14.92
2022-10-22T14:23:58.306Z,14.93
2022-10-22T14:27:00.857Z,14.89
2022-10-22T14:30:04.534Z,14.94
2022-10-22T14:33:18.988Z,15.02
2022-10-22T14:36:22.143Z,14.95
2022-10-22T14:39:24.995Z,14.76
2022-10-22T14:42:28.717Z,14.75
2022-10-22T14:45:31.833Z,14.62
2022-10-22T14:48:34.989Z,14.54
2022-10-22T14:51:37.713Z,14.52
2022-10-22T14:54:40.565Z,14.58
2022-10-22T14:57:43.759Z,14.42
2022-10-22T15:00:47.908Z,14.49
2022-10-22T15:03:50.703Z,14.47
2022-10-22T15:06:56.429Z,14.32
2022-10-22T15:09:59.193Z,14.07
2022-10-22T15:13:02.086Z,14.03
2022-10-22T15:16:10.466Z,13.85
2022-10-22T15:19:22.745Z,13.95
2022-10-22T15:22:25.732Z,13.94
2022-10-22T15:25:28.861Z,13.82
2022-10-22T15:28:31.912Z,13.75
2022-10-22T15:32:00.620Z,13.70
2022-10-22T15:35:05.758Z,13.66
2022-10-22T15:38:10.022Z,13.64
2022-10-22T15:41:13.640Z,13.50
2022-10-22T15:44:30.712Z,13.47
2022-10-22T15:47:33.998Z,13.31
2022-10-22T15:50:39.915Z,13.23
2022-10-22T15:53:43.360Z,13.21
2022-10-22T15:56:46.679Z,13.23
2022-10-22T15:59:52.202Z,13.10
2022-10-22T16:02:55.363Z,13.07
2022-10-22T16:05:58.722Z,12.95
2022-10-22T16:09:03.945Z,12.94
2022-10-22T16:12:07.397Z,12.84
2022-10-22T16:15:10.518Z,12.81
2022-10-22T16:18:13.560Z,12.69
2022-10-22T16:21:16.390Z,12.61
2022-10-22T16:24:20.951Z,12.54
2022-10-22T16:27:23.886Z,12.40
2022-10-22T16:30:27.288Z,12.35
2022-10-22T16:33:39.193Z,12.33
2022-10-22T16:36:46.062Z,12.28
2022-10-22T16:39:49.802Z,12.14
2022-10-22T16:42:53.020Z,12.13
2022-10-22T16:45:56.099Z,12.09
2022-10-22T16:49:01.289Z,12.05
2022-10-22T16:52:04.388Z,11.97
2022-10-22T16:55:09.177Z,11.97
2022-10-22T16:58:12.033Z,11.91
2022-10-22T17:01:18.417Z,11.90
2022-10-22T17:04:22.502Z,11.82
2022-10-22T17:07:25.802Z,11.74
2022-10-22T17:10:28.806Z,11.80
2022-10-22T17:13:32.111Z,11.82
2022-10-22T17:16:38.529Z,11.75
2022-10-22T17:19:41.726Z,11.67
2022-10-22T17:22:44.937Z,11.68
2022-10-22T17:25:48.182Z,11.66
2022-10-22T17:28:51.266Z,11.56
2022-10-22T17:31:54.572Z,11.53
2022-10-22T17:34:58.858Z,11.49
2022-10-22T17:38:02.200Z,11.40
2022-10-22T17:41:06.993Z,11.36
2022-10-22T17:44:12.395Z,11.30
2022-10-22T17:47:15.799Z,11.28
2022-10-22T17:50:22.624Z,11.27
2022-10-22T17:53:25.795Z,11.27
2022-10-22T17:56:30.476Z,11.30
2022-10-22T17:59:33.663Z,11.22
2022-10-22T18:02:38.108Z,11.23
2022-10-22T18:20:34.809Z,11.26
2022-10-22T18:23:57.669Z,11.24
2022-10-22T18:27:04.087Z,11.22
2022-10-22T18:30:11.896Z,11.10
2022-10-22T18:33:17.805Z,11.15
2022-10-22T18:36:23.086Z,11.21
2022-10-22T18:39:26.297Z,11.27
2022-10-22T18:42:32.929Z,11.20
2022-10-22T18:45:45.716Z,11.19
2022-10-22T18:48:49.167Z,11.15
2022-10-22T18:51:53.357Z,11.15
2022-10-22T18:54:57.114Z,11.22
2022-10-22T18:58:00.197Z,11.20
2022-10-22T19:01:10.855Z,11.10
2022-10-22T19:04:14.444Z,11.10
2022-10-22T19:07:19.283Z,11.03
2022-10-22T19:10:22.688Z,11.02
2022-10-22T19:13:26.799Z,10.92
2022-10-22T19:16:35.265Z,10.88
2022-10-22T19:19:39.080Z,10.88
2022-10-22T19:22:45.087Z,10.81
2022-10-22T19:25:48.538Z,10.81
2022-10-22T19:28:53.155Z,10.74
2022-10-22T19:31:56.658Z,10.66
2022-10-22T19:35:03.215Z,10.70
2022-10-22T19:38:07.046Z,10.62
2022-10-22T19:41:12.700Z,10.49
2022-10-22T19:44:16.369Z,10.43
2022-10-22T19:47:20.233Z,10.40
2022-10-22T19:50:24.312Z,10.37
2022-10-22T19:53:27.932Z,10.38
2022-10-22T19:56:36.183Z,10.41
2022-10-22T19:59:39.656Z,10.50
2022-10-22T20:02:44.451Z,10.46
2022-10-22T20:05:50.850Z,10.47
2022-10-22T20:08:56.122Z,10.47
2022-10-22T20:11:59.931Z,10.45
2022-10-22T20:15:04.041Z,10.39
2022-10-22T20:18:07.356Z,10.35
2022-10-22T20:21:23.716Z,10.30
2022-10-22T20:24:27.354Z,10.31
2022-10-22T20:27:30.475Z,10.30
2022-10-22T20:30:34.047Z,10.30
2022-10-22T20:33:37.149Z,10.27
2022-10-22T20:36:41.776Z,10.27
2022-10-22T20:39:44.806Z,10.32
2022-10-22T20:42:49.410Z,10.28
2022-10-22T20:45:52.327Z,10.28
2022-10-22T20:49:02.339Z,10.39
2022-10-22T20:52:05.606Z,10.39
2022-10-22T20:55:08.811Z,10.29
2022-10-22T20:58:11.808Z,10.28
2022-10-22T21:01:21.794Z,10.20
2022-10-22T21:04:24.934Z,10.19
2022-10-22T21:07:27.969Z,10.17
2022-10-22T21:10:32.689Z,10.06
2022-10-22T21:13:36.215Z,10.11
2022-10-22T21:16:49.395Z,10.04
2022-10-22T21:19:52.667Z,10.04
2022-10-22T21:22:55.763Z,10.00
2022-10-22T21:25:59.280Z,9.96
2022-10-22T21:29:02.229Z,9.91
2022-10-22T21:32:05.548Z,9.90
2022-10-22T21:35:08.652Z,9.88
2022-10-22T21:38:11.702Z,9.88
2022-10-22T21:41:18.380Z,9.85
2022-10-22T21:44:21.417Z,9.81
2022-10-22T21:47:24.640Z,9.77
2022-10-22T21:50:27.645Z,9.74
2022-10-22T21:53:30.332Z,9.74
2022-10-22T21:56:35.674Z,9.76
2022-10-22T21:59:38.439Z,9.74
2022-10-22T22:02:41.607Z,9.73
2022-10-22T22:05:44.636Z,9.75
2022-10-22T22:08:47.895Z,9.70
2022-10-22T22:11:50.876Z,9.66
2022-10-22T22:14:53.543Z,9.67
2022-10-22T22:17:56.671Z,9.72
2022-10-22T22:21:00.435Z,9.75
2022-10-22T22:24:04.216Z,9.77
2022-10-22T22:30:41.433Z,9.86
2022-10-22T22:33:45.118Z,9.83
2022-10-22T22:36:49.797Z,9.86
2022-10-22T22:39:53.275Z,9.86
2022-10-22T22:42:56.093Z,9.78
2022-10-22T22:46:04.283Z,9.77
2022-10-22T22:49:07.327Z,9.88
2022-10-22T22:52:10.305Z,9.84
2022-10-22T22:55:13.024Z,9.79
2022-10-22T22:58:16.147Z,9.76
2022-10-22T23:01:25.151Z,9.77
2022-10-22T23:04:30.210Z,9.71
2022-10-22T23:07:32.930Z,9.70
2022-10-22T23:10:35.879Z,9.69
2022-10-22T23:13:39.812Z,9.67
2022-10-22T23:16:46.593Z,9.66
2022-10-22T23:19:49.366Z,9.70
2022-10-22T23:22:52.282Z,9.74
2022-10-22T23:29:02.243Z,9.66
2022-10-22T23:32:07.988Z,9.61
2022-10-22T23:35:11.244Z,9.62
2022-10-22T23:38:14.073Z,9.60
2022-10-22T23:41:18.091Z,9.60
2022-10-22T23:44:22.141Z,9.64
2022-10-22T23:47:25.292Z,9.66
2022-10-22T23:50:28.014Z,9.57
2022-10-22T23:53:31.053Z,9.58
2022-10-22T23:56:34.511Z,9.47
2022-10-22T23:59:37.398Z,9.44
